sensor_id;sensor_type;location;lat;lon;timestamp;P1;durP1;ratioP1;P2;durP2;ratioP2
25175;SDS011;13135;55.166;61.286;2022-12-18T00:01:39;25.63;;;13.03;;
25175;SDS011;13135;55.166;61.286;2022-12-18T00:04:24;24.80;;;13.33;;
25175;SDS011;13135;55.166;61.286;2022-12-18T00:07:09;23.87;;;13.03;;
25175;SDS011;13135;55.166;61.286;2022-12-18T00:09:52;27.40;;;13.10;;
25175;SDS011;13135;55.166;61.286;2022-12-18T00:12:37;29.07;;;13.27;;
25175;SDS011;13135;55.166;61.286;2022-12-18T00:15:21;23.93;;;11.97;;
25175;SDS011;13135;55.166;61.286;2022-12-18T00:18:06;29.37;;;14.13;;
25175;SDS011;13135;55.166;61.286;2022-12-18T00:20:51;28.23;;;13.90;;
25175;SDS011;13135;55.166;61.286;2022-12-18T00:23:35;30.50;;;13.70;;
25175;SDS011;13135;55.166;61.286;2022-12-18T00:26:23;25.30;;;12.43;;
25175;SDS011;13135;55.166;61.286;2022-12-18T00:29:09;31.53;;;12.77;;
25175;SDS011;13135;55.166;61.286;2022-12-18T00:31:51;32.57;;;14.60;;
25175;SDS011;13135;55.166;61.286;2022-12-18T00:34:36;28.07;;;14.00;;
25175;SDS011;13135;55.166;61.286;2022-12-18T00:37:21;29.47;;;14.53;;
25175;SDS011;13135;55.166;61.286;2022-12-18T00:40:07;33.50;;;14.50;;
25175;SDS011;13135;55.166;61.286;2022-12-18T00:42:53;26.93;;;13.10;;
25175;SDS011;13135;55.166;61.286;2022-12-18T00:45:38;27.97;;;13.50;;
25175;SDS011;13135;55.166;61.286;2022-12-18T00:48:21;26.67;;;13.67;;
25175;SDS011;13135;55.166;61.286;2022-12-18T00:51:05;28.30;;;13.60;;
25175;SDS011;13135;55.166;61.286;2022-12-18T00:53:55;27.27;;;13.13;;
25175;SDS011;13135;55.166;61.286;2022-12-18T00:57:01;27.73;;;13.17;;
25175;SDS011;13135;55.166;61.286;2022-12-18T00:59:46;23.00;;;12.27;;
25175;SDS011;13135;55.166;61.286;2022-12-18T01:02:31;28.00;;;13.67;;
25175;SDS011;13135;55.166;61.286;2022-12-18T01:05:16;30.77;;;15.27;;
25175;SDS011;13135;55.166;61.286;2022-12-18T01:08:00;28.07;;;13.30;;
25175;SDS011;13135;55.166;61.286;2022-12-18T01:10:45;22.77;;;11.23;;
25175;SDS011;13135;55.166;61.286;2022-12-18T01:13:29;24.17;;;12.47;;
25175;SDS011;13135;55.166;61.286;2022-12-18T01:16:14;28.13;;;12.90;;
25175;SDS011;13135;55.166;61.286;2022-12-18T01:18:58;28.53;;;13.57;;
25175;SDS011;13135;55.166;61.286;2022-12-18T01:21:43;27.57;;;12.90;;
25175;SDS011;13135;55.166;61.286;2022-12-18T01:24:27;22.97;;;11.83;;
25175;SDS011;13135;55.166;61.286;2022-12-18T01:27:11;28.13;;;12.23;;
25175;SDS011;13135;55.166;61.286;2022-12-18T01:29:53;24.97;;;12.17;;
25175;SDS011;13135;55.166;61.286;2022-12-18T01:32:38;27.67;;;10.90;;
25175;SDS011;13135;55.166;61.286;2022-12-18T01:35:23;25.00;;;12.30;;
25175;SDS011;13135;55.166;61.286;2022-12-18T01:38:07;25.70;;;13.30;;
25175;SDS011;13135;55.166;61.286;2022-12-18T01:40:56;22.73;;;12.03;;
25175;SDS011;13135;55.166;61.286;2022-12-18T01:43:43;28.50;;;13.10;;
25175;SDS011;13135;55.166;61.286;2022-12-18T01:46:30;25.47;;;12.37;;
25175;SDS011;13135;55.166;61.286;2022-12-18T01:49:14;26.87;;;12.73;;
25175;SDS011;13135;55.166;61.286;2022-12-18T01:51:59;24.30;;;11.27;;
25175;SDS011;13135;55.166;61.286;2022-12-18T01:54:39;24.80;;;12.33;;
25175;SDS011;13135;55.166;61.286;2022-12-18T01:57:25;25.00;;;12.53;;
25175;SDS011;13135;55.166;61.286;2022-12-18T02:00:11;27.37;;;13.43;;
25175;SDS011;13135;55.166;61.286;2022-12-18T02:02:54;27.30;;;12.83;;
25175;SDS011;13135;55.166;61.286;2022-12-18T02:09:08;25.20;;;11.97;;
25175;SDS011;13135;55.166;61.286;2022-12-18T02:11:56;25.80;;;11.40;;
25175;SDS011;13135;55.166;61.286;2022-12-18T02:14:43;23.27;;;11.70;;
25175;SDS011;13135;55.166;61.286;2022-12-18T02:17:34;22.73;;;12.43;;
25175;SDS011;13135;55.166;61.286;2022-12-18T02:20:22;26.03;;;11.77;;
25175;SDS011;13135;55.166;61.286;2022-12-18T02:23:10;22.97;;;11.90;;
25175;SDS011;13135;55.166;61.286;2022-12-18T02:26:03;27.57;;;12.10;;
25175;SDS011;13135;55.166;61.286;2022-12-18T02:29:06;27.90;;;12.80;;
25175;SDS011;13135;55.166;61.286;2022-12-18T02:31:51;21.10;;;12.17;;
25175;SDS011;13135;55.166;61.286;2022-12-18T02:34:37;25.50;;;12.60;;
25175;SDS011;13135;55.166;61.286;2022-12-18T02:37:17;25.43;;;12.17;;
25175;SDS011;13135;55.166;61.286;2022-12-18T02:40:03;26.30;;;11.80;;
25175;SDS011;13135;55.166;61.286;2022-12-18T02:42:48;28.00;;;12.77;;
25175;SDS011;13135;55.166;61.286;2022-12-18T02:45:32;24.50;;;12.93;;
25175;SDS011;13135;55.166;61.286;2022-12-18T02:48:18;22.23;;;11.37;;
25175;SDS011;13135;55.166;61.286;2022-12-18T02:51:11;27.83;;;12.70;;
25175;SDS011;13135;55.166;61.286;2022-12-18T02:53:58;30.13;;;12.63;;
25175;SDS011;13135;55.166;61.286;2022-12-18T02:56:51;25.23;;;12.27;;
25175;SDS011;13135;55.166;61.286;2022-12-18T02:59:39;29.57;;;12.20;;
25175;SDS011;13135;55.166;61.286;2022-12-18T03:02:28;24.00;;;11.97;;
25175;SDS011;13135;55.166;61.286;2022-12-18T03:05:19;28.17;;;13.17;;
25175;SDS011;13135;55.166;61.286;2022-12-18T03:08:06;24.43;;;10.83;;
25175;SDS011;13135;55.166;61.286;2022-12-18T03:10:54;23.77;;;11.13;;
25175;SDS011;13135;55.166;61.286;2022-12-18T03:13:48;24.30;;;11.27;;
25175;SDS011;13135;55.166;61.286;2022-12-18T03:16:32;27.40;;;12.37;;
25175;SDS011;13135;55.166;61.286;2022-12-18T03:19:18;30.83;;;13.27;;
25175;SDS011;13135;55.166;61.286;2022-12-18T03:22:02;26.90;;;11.07;;
25175;SDS011;13135;55.166;61.286;2022-12-18T03:24:47;24.50;;;11.30;;
25175;SDS011;13135;55.166;61.286;2022-12-18T03:27:32;25.67;;;11.63;;
25175;SDS011;13135;55.166;61.286;2022-12-18T03:30:19;27.43;;;12.37;;
25175;SDS011;13135;55.166;61.286;2022-12-18T03:33:10;24.57;;;13.30;;
25175;SDS011;13135;55.166;61.286;2022-12-18T03:35:54;28.80;;;13.30;;
25175;SDS011;13135;55.166;61.286;2022-12-18T03:38:38;26.27;;;12.60;;
25175;SDS011;13135;55.166;61.286;2022-12-18T03:41:29;27.87;;;13.30;;
25175;SDS011;13135;55.166;61.286;2022-12-18T03:44:21;27.10;;;13.27;;
25175;SDS011;13135;55.166;61.286;2022-12-18T03:47:15;27.63;;;14.23;;
25175;SDS011;13135;55.166;61.286;2022-12-18T03:50:05;27.40;;;12.77;;
25175;SDS011;13135;55.166;61.286;2022-12-18T03:52:59;23.57;;;12.23;;
25175;SDS011;13135;55.166;61.286;2022-12-18T03:55:50;22.97;;;11.37;;
25175;SDS011;13135;55.166;61.286;2022-12-18T03:58:35;26.03;;;13.10;;
25175;SDS011;13135;55.166;61.286;2022-12-18T04:01:19;28.57;;;12.70;;
25175;SDS011;13135;55.166;61.286;2022-12-18T04:04:03;26.03;;;13.37;;
25175;SDS011;13135;55.166;61.286;2022-12-18T04:06:47;25.73;;;12.23;;
25175;SDS011;13135;55.166;61.286;2022-12-18T04:09:31;24.97;;;13.03;;
25175;SDS011;13135;55.166;61.286;2022-12-18T04:12:16;23.90;;;12.23;;
25175;SDS011;13135;55.166;61.286;2022-12-18T04:15:00;25.93;;;12.30;;
25175;SDS011;13135;55.166;61.286;2022-12-18T04:17:48;27.00;;;12.97;;
25175;SDS011;13135;55.166;61.286;2022-12-18T04:20:31;28.50;;;12.87;;
25175;SDS011;13135;55.166;61.286;2022-12-18T04:23:15;22.30;;;11.47;;
25175;SDS011;13135;55.166;61.286;2022-12-18T04:26:01;27.13;;;13.20;;
25175;SDS011;13135;55.166;61.286;2022-12-18T04:28:45;27.03;;;11.97;;
25175;SDS011;13135;55.166;61.286;2022-12-18T04:31:29;24.53;;;12.20;;
25175;SDS011;13135;55.166;61.286;2022-12-18T04:34:13;27.07;;;11.90;;
25175;SDS011;13135;55.166;61.286;2022-12-18T04:36:58;24.33;;;12.87;;
25175;SDS011;13135;55.166;61.286;2022-12-18T04:39:43;27.47;;;12.50;;
25175;SDS011;13135;55.166;61.286;2022-12-18T04:42:27;26.07;;;12.67;;
25175;SDS011;13135;55.166;61.286;2022-12-18T04:45:12;26.63;;;13.43;;
25175;SDS011;13135;55.166;61.286;2022-12-18T04:47:57;25.93;;;11.10;;
25175;SDS011;13135;55.166;61.286;2022-12-18T04:50:41;30.77;;;13.20;;
25175;SDS011;13135;55.166;61.286;2022-12-18T04:53:26;26.13;;;13.03;;
25175;SDS011;13135;55.166;61.286;2022-12-18T04:56:12;27.53;;;12.77;;
25175;SDS011;13135;55.166;61.286;2022-12-18T04:58:56;24.57;;;12.77;;
25175;SDS011;13135;55.166;61.286;2022-12-18T05:01:40;26.63;;;11.77;;
25175;SDS011;13135;55.166;61.286;2022-12-18T05:04:25;24.80;;;12.20;;
25175;SDS011;13135;55.166;61.286;2022-12-18T05:07:10;28.47;;;12.07;;
25175;SDS011;13135;55.166;61.286;2022-12-18T05:09:53;23.63;;;12.40;;
25175;SDS011;13135;55.166;61.286;2022-12-18T05:12:38;33.90;;;14.67;;
25175;SDS011;13135;55.166;61.286;2022-12-18T05:15:23;29.97;;;13.77;;
25175;SDS011;13135;55.166;61.286;2022-12-18T05:18:06;27.37;;;12.83;;
25175;SDS011;13135;55.166;61.286;2022-12-18T05:20:52;28.30;;;13.87;;
25175;SDS011;13135;55.166;61.286;2022-12-18T05:23:35;33.37;;;12.90;;
25175;SDS011;13135;55.166;61.286;2022-12-18T05:26:20;30.67;;;14.80;;
25175;SDS011;13135;55.166;61.286;2022-12-18T05:29:04;26.60;;;12.63;;
25175;SDS011;13135;55.166;61.286;2022-12-18T05:31:56;26.37;;;13.20;;
25175;SDS011;13135;55.166;61.286;2022-12-18T05:34:40;32.77;;;14.97;;
25175;SDS011;13135;55.166;61.286;2022-12-18T05:37:25;34.53;;;15.43;;
25175;SDS011;13135;55.166;61.286;2022-12-18T05:40:09;34.47;;;15.23;;
25175;SDS011;13135;55.166;61.286;2022-12-18T05:42:55;30.03;;;15.13;;
25175;SDS011;13135;55.166;61.286;2022-12-18T05:45:40;27.50;;;13.67;;
25175;SDS011;13135;55.166;61.286;2022-12-18T05:48:25;30.67;;;14.30;;
25175;SDS011;13135;55.166;61.286;2022-12-18T05:51:11;31.60;;;14.97;;
25175;SDS011;13135;55.166;61.286;2022-12-18T05:53:55;32.23;;;14.77;;
25175;SDS011;13135;55.166;61.286;2022-12-18T05:56:40;30.23;;;13.67;;
25175;SDS011;13135;55.166;61.286;2022-12-18T05:59:24;31.57;;;14.43;;
25175;SDS011;13135;55.166;61.286;2022-12-18T06:02:09;31.23;;;14.30;;
25175;SDS011;13135;55.166;61.286;2022-12-18T06:04:53;33.10;;;14.73;;
25175;SDS011;13135;55.166;61.286;2022-12-18T06:07:37;31.20;;;13.47;;
25175;SDS011;13135;55.166;61.286;2022-12-18T06:10:20;29.87;;;13.87;;
25175;SDS011;13135;55.166;61.286;2022-12-18T06:13:05;31.30;;;14.73;;
25175;SDS011;13135;55.166;61.286;2022-12-18T06:15:51;32.80;;;14.67;;
25175;SDS011;13135;55.166;61.286;2022-12-18T06:18:37;33.43;;;15.37;;
25175;SDS011;13135;55.166;61.286;2022-12-18T06:21:22;39.00;;;16.47;;
25175;SDS011;13135;55.166;61.286;2022-12-18T06:24:07;36.70;;;16.00;;
25175;SDS011;13135;55.166;61.286;2022-12-18T06:26:52;33.67;;;15.40;;
25175;SDS011;13135;55.166;61.286;2022-12-18T06:29:35;34.77;;;15.53;;
25175;SDS011;13135;55.166;61.286;2022-12-18T06:32:20;35.43;;;16.23;;
25175;SDS011;13135;55.166;61.286;2022-12-18T06:35:05;36.90;;;16.07;;
25175;SDS011;13135;55.166;61.286;2022-12-18T06:37:51;35.80;;;17.20;;
25175;SDS011;13135;55.166;61.286;2022-12-18T06:40:36;38.63;;;18.93;;
25175;SDS011;13135;55.166;61.286;2022-12-18T06:46:22;31.47;;;15.57;;
25175;SDS011;13135;55.166;61.286;2022-12-18T06:49:07;41.77;;;20.07;;
25175;SDS011;13135;55.166;61.286;2022-12-18T06:51:53;35.10;;;15.83;;
25175;SDS011;13135;55.166;61.286;2022-12-18T06:54:37;35.70;;;16.47;;
25175;SDS011;13135;55.166;61.286;2022-12-18T06:57:21;33.40;;;16.43;;
25175;SDS011;13135;55.166;61.286;2022-12-18T07:03:02;36.00;;;16.60;;
25175;SDS011;13135;55.166;61.286;2022-12-18T07:05:47;35.53;;;16.43;;
25175;SDS011;13135;55.166;61.286;2022-12-18T07:08:32;33.37;;;16.13;;
25175;SDS011;13135;55.166;61.286;2022-12-18T07:11:18;33.80;;;15.80;;
25175;SDS011;13135;55.166;61.286;2022-12-18T07:14:02;45.67;;;20.90;;
25175;SDS011;13135;55.166;61.286;2022-12-18T07:16:46;28.87;;;15.27;;
25175;SDS011;13135;55.166;61.286;2022-12-18T07:19:30;31.30;;;14.30;;
25175;SDS011;13135;55.166;61.286;2022-12-18T07:22:14;36.07;;;16.93;;
25175;SDS011;13135;55.166;61.286;2022-12-18T07:25:01;30.90;;;14.87;;
25175;SDS011;13135;55.166;61.286;2022-12-18T07:27:45;31.90;;;15.90;;
25175;SDS011;13135;55.166;61.286;2022-12-18T07:30:30;37.57;;;15.80;;
25175;SDS011;13135;55.166;61.286;2022-12-18T07:33:15;33.00;;;15.50;;
25175;SDS011;13135;55.166;61.286;2022-12-18T07:36:00;36.90;;;16.20;;
25175;SDS011;13135;55.166;61.286;2022-12-18T07:38:46;31.07;;;15.23;;
25175;SDS011;13135;55.166;61.286;2022-12-18T07:41:28;31.63;;;16.60;;
25175;SDS011;13135;55.166;61.286;2022-12-18T07:44:10;39.27;;;18.60;;
25175;SDS011;13135;55.166;61.286;2022-12-18T07:46:56;36.70;;;17.13;;
25175;SDS011;13135;55.166;61.286;2022-12-18T07:49:40;33.97;;;16.97;;
25175;SDS011;13135;55.166;61.286;2022-12-18T07:52:24;34.27;;;16.70;;
25175;SDS011;13135;55.166;61.286;2022-12-18T07:55:08;37.37;;;17.37;;
25175;SDS011;13135;55.166;61.286;2022-12-18T07:57:54;36.70;;;16.53;;
25175;SDS011;13135;55.166;61.286;2022-12-18T08:00:38;36.03;;;17.70;;
25175;SDS011;13135;55.166;61.286;2022-12-18T08:03:22;37.50;;;16.57;;
25175;SDS011;13135;55.166;61.286;2022-12-18T08:06:08;33.90;;;17.50;;
25175;SDS011;13135;55.166;61.286;2022-12-18T08:08:52;41.53;;;19.00;;
25175;SDS011;13135;55.166;61.286;2022-12-18T08:11:37;36.97;;;17.47;;
25175;SDS011;13135;55.166;61.286;2022-12-18T08:14:21;35.23;;;18.80;;
25175;SDS011;13135;55.166;61.286;2022-12-18T08:17:05;36.37;;;18.20;;
25175;SDS011;13135;55.166;61.286;2022-12-18T08:19:50;39.17;;;18.20;;
25175;SDS011;13135;55.166;61.286;2022-12-18T08:22:35;42.77;;;20.40;;
25175;SDS011;13135;55.166;61.286;2022-12-18T08:25:19;40.63;;;19.37;;
25175;SDS011;13135;55.166;61.286;2022-12-18T08:28:04;40.77;;;20.43;;
25175;SDS011;13135;55.166;61.286;2022-12-18T08:30:52;43.17;;;19.53;;
25175;SDS011;13135;55.166;61.286;2022-12-18T08:33:37;42.87;;;19.50;;
25175;SDS011;13135;55.166;61.286;2022-12-18T08:36:22;47.27;;;20.67;;
25175;SDS011;13135;55.166;61.286;2022-12-18T08:39:06;46.73;;;21.63;;
25175;SDS011;13135;55.166;61.286;2022-12-18T08:41:50;44.63;;;21.90;;
25175;SDS011;13135;55.166;61.286;2022-12-18T08:44:34;52.70;;;21.47;;
25175;SDS011;13135;55.166;61.286;2022-12-18T08:47:20;48.17;;;21.83;;
25175;SDS011;13135;55.166;61.286;2022-12-18T08:50:01;49.07;;;22.10;;
25175;SDS011;13135;55.166;61.286;2022-12-18T08:52:47;53.00;;;22.73;;
25175;SDS011;13135;55.166;61.286;2022-12-18T08:55:31;50.00;;;22.67;;
25175;SDS011;13135;55.166;61.286;2022-12-18T08:58:15;56.17;;;22.90;;
25175;SDS011;13135;55.166;61.286;2022-12-18T09:01:03;50.23;;;22.03;;
25175;SDS011;13135;55.166;61.286;2022-12-18T09:03:47;61.73;;;28.73;;
25175;SDS011;13135;55.166;61.286;2022-12-18T09:06:30;74.37;;;34.60;;
25175;SDS011;13135;55.166;61.286;2022-12-18T09:09:15;53.13;;;23.00;;
25175;SDS011;13135;55.166;61.286;2022-12-18T09:12:00;52.10;;;23.47;;
25175;SDS011;13135;55.166;61.286;2022-12-18T09:14:44;63.07;;;24.73;;
25175;SDS011;13135;55.166;61.286;2022-12-18T09:17:29;55.53;;;23.80;;
25175;SDS011;13135;55.166;61.286;2022-12-18T09:20:14;58.60;;;25.47;;
25175;SDS011;13135;55.166;61.286;2022-12-18T09:22:59;57.37;;;24.63;;
25175;SDS011;13135;55.166;61.286;2022-12-18T09:25:44;60.70;;;25.50;;
25175;SDS011;13135;55.166;61.286;2022-12-18T09:28:29;60.90;;;23.87;;
25175;SDS011;13135;55.166;61.286;2022-12-18T09:31:13;60.50;;;24.40;;
25175;SDS011;13135;55.166;61.286;2022-12-18T09:33:58;58.60;;;22.63;;
25175;SDS011;13135;55.166;61.286;2022-12-18T09:36:43;55.33;;;24.20;;
25175;SDS011;13135;55.166;61.286;2022-12-18T09:39:24;46.00;;;21.30;;
25175;SDS011;13135;55.166;61.286;2022-12-18T09:42:12;47.13;;;21.43;;
25175;SDS011;13135;55.166;61.286;2022-12-18T09:44:57;53.03;;;23.90;;
25175;SDS011;13135;55.166;61.286;2022-12-18T09:47:40;45.37;;;22.63;;
25175;SDS011;13135;55.166;61.286;2022-12-18T09:50:30;47.07;;;20.63;;
25175;SDS011;13135;55.166;61.286;2022-12-18T09:53:15;47.20;;;21.17;;
25175;SDS011;13135;55.166;61.286;2022-12-18T09:55:57;48.80;;;22.73;;
25175;SDS011;13135;55.166;61.286;2022-12-18T09:58:45;50.63;;;23.73;;
25175;SDS011;13135;55.166;61.286;2022-12-18T10:01:29;49.30;;;22.00;;
25175;SDS011;13135;55.166;61.286;2022-12-18T10:04:13;46.80;;;21.07;;
25175;SDS011;13135;55.166;61.286;2022-12-18T10:07:03;45.37;;;22.03;;
25175;SDS011;13135;55.166;61.286;2022-12-18T10:09:58;43.43;;;22.33;;
25175;SDS011;13135;55.166;61.286;2022-12-18T10:12:45;52.77;;;22.80;;
25175;SDS011;13135;55.166;61.286;2022-12-18T10:15:36;49.60;;;22.90;;
25175;SDS011;13135;55.166;61.286;2022-12-18T10:18:30;41.73;;;20.90;;
25175;SDS011;13135;55.166;61.286;2022-12-18T10:21:17;47.20;;;22.33;;
25175;SDS011;13135;55.166;61.286;2022-12-18T10:26:59;43.10;;;19.93;;
25175;SDS011;13135;55.166;61.286;2022-12-18T10:29:44;48.17;;;20.47;;
25175;SDS011;13135;55.166;61.286;2022-12-18T10:32:29;41.13;;;20.90;;
25175;SDS011;13135;55.166;61.286;2022-12-18T10:35:18;39.70;;;18.43;;
25175;SDS011;13135;55.166;61.286;2022-12-18T10:38:02;38.33;;;17.83;;
25175;SDS011;13135;55.166;61.286;2022-12-18T10:40:49;36.50;;;17.30;;
25175;SDS011;13135;55.166;61.286;2022-12-18T10:43:33;36.47;;;17.87;;
25175;SDS011;13135;55.166;61.286;2022-12-18T10:46:17;40.20;;;18.43;;
25175;SDS011;13135;55.166;61.286;2022-12-18T10:49:04;39.07;;;18.20;;
25175;SDS011;13135;55.166;61.286;2022-12-18T10:51:49;36.27;;;18.40;;
25175;SDS011;13135;55.166;61.286;2022-12-18T10:54:35;40.80;;;18.30;;
25175;SDS011;13135;55.166;61.286;2022-12-18T11:00:25;40.83;;;18.53;;
25175;SDS011;13135;55.166;61.286;2022-12-18T11:06:10;44.33;;;19.17;;
25175;SDS011;13135;55.166;61.286;2022-12-18T11:08:58;43.73;;;19.53;;
25175;SDS011;13135;55.166;61.286;2022-12-18T11:11:42;43.77;;;19.97;;
25175;SDS011;13135;55.166;61.286;2022-12-18T11:14:29;45.70;;;20.27;;
25175;SDS011;13135;55.166;61.286;2022-12-18T11:17:33;44.23;;;19.47;;
25175;SDS011;13135;55.166;61.286;2022-12-18T11:20:21;42.43;;;20.13;;
25175;SDS011;13135;55.166;61.286;2022-12-18T11:23:05;40.60;;;18.17;;
25175;SDS011;13135;55.166;61.286;2022-12-18T11:25:51;43.60;;;19.60;;
25175;SDS011;13135;55.166;61.286;2022-12-18T11:28:37;47.00;;;19.70;;
25175;SDS011;13135;55.166;61.286;2022-12-18T11:31:23;43.07;;;19.33;;
25175;SDS011;13135;55.166;61.286;2022-12-18T11:34:10;47.60;;;21.00;;
25175;SDS011;13135;55.166;61.286;2022-12-18T11:37:01;40.57;;;19.87;;
25175;SDS011;13135;55.166;61.286;2022-12-18T11:39:49;43.13;;;19.53;;
25175;SDS011;13135;55.166;61.286;2022-12-18T11:42:35;42.83;;;20.50;;
25175;SDS011;13135;55.166;61.286;2022-12-18T11:45:24;46.70;;;19.97;;
25175;SDS011;13135;55.166;61.286;2022-12-18T11:48:14;45.43;;;19.93;;
25175;SDS011;13135;55.166;61.286;2022-12-18T11:51:05;42.50;;;20.97;;
25175;SDS011;13135;55.166;61.286;2022-12-18T11:53:49;49.40;;;21.63;;
25175;SDS011;13135;55.166;61.286;2022-12-18T12:00:14;40.40;;;19.37;;
25175;SDS011;13135;55.166;61.286;2022-12-18T12:03:06;34.97;;;18.00;;
25175;SDS011;13135;55.166;61.286;2022-12-18T12:08:57;41.60;;;17.50;;
25175;SDS011;13135;55.166;61.286;2022-12-18T12:11:51;41.97;;;18.17;;
25175;SDS011;13135;55.166;61.286;2022-12-18T12:14:42;34.47;;;17.80;;
25175;SDS011;13135;55.166;61.286;2022-12-18T12:17:30;34.73;;;17.30;;
25175;SDS011;13135;55.166;61.286;2022-12-18T12:20:16;41.33;;;17.90;;
25175;SDS011;13135;55.166;61.286;2022-12-18T12:26:12;32.73;;;15.97;;
25175;SDS011;13135;55.166;61.286;2022-12-18T12:29:00;29.83;;;15.50;;
25175;SDS011;13135;55.166;61.286;2022-12-18T12:34:47;33.43;;;16.87;;
25175;SDS011;13135;55.166;61.286;2022-12-18T12:37:51;28.77;;;15.40;;
25175;SDS011;13135;55.166;61.286;2022-12-18T12:40:34;33.67;;;16.17;;
25175;SDS011;13135;55.166;61.286;2022-12-18T12:43:24;38.13;;;15.43;;
25175;SDS011;13135;55.166;61.286;2022-12-18T12:46:06;22.07;;;12.43;;
25175;SDS011;13135;55.166;61.286;2022-12-18T12:48:57;27.73;;;13.40;;
25175;SDS011;13135;55.166;61.286;2022-12-18T12:51:43;29.30;;;13.03;;
25175;SDS011;13135;55.166;61.286;2022-12-18T12:54:27;23.40;;;12.60;;
25175;SDS011;13135;55.166;61.286;2022-12-18T12:57:16;24.53;;;12.37;;
25175;SDS011;13135;55.166;61.286;2022-12-18T13:00:14;30.50;;;14.70;;
25175;SDS011;13135;55.166;61.286;2022-12-18T13:03:08;25.80;;;13.27;;
25175;SDS011;13135;55.166;61.286;2022-12-18T13:05:54;26.73;;;14.00;;
25175;SDS011;13135;55.166;61.286;2022-12-18T13:11:39;29.90;;;15.10;;
25175;SDS011;13135;55.166;61.286;2022-12-18T13:14:34;24.43;;;12.07;;
25175;SDS011;13135;55.166;61.286;2022-12-18T13:17:26;22.10;;;11.30;;
25175;SDS011;13135;55.166;61.286;2022-12-18T13:20:10;26.67;;;13.27;;
25175;SDS011;13135;55.166;61.286;2022-12-18T13:23:00;28.73;;;13.47;;
25175;SDS011;13135;55.166;61.286;2022-12-18T13:25:45;26.70;;;12.60;;
25175;SDS011;13135;55.166;61.286;2022-12-18T13:34:43;21.87;;;11.20;;
25175;SDS011;13135;55.166;61.286;2022-12-18T13:37:40;23.40;;;12.40;;
25175;SDS011;13135;55.166;61.286;2022-12-18T13:43:39;27.07;;;12.07;;
25175;SDS011;13135;55.166;61.286;2022-12-18T13:46:29;23.50;;;10.90;;
25175;SDS011;13135;55.166;61.286;2022-12-18T13:49:22;23.33;;;10.97;;
25175;SDS011;13135;55.166;61.286;2022-12-18T13:54:59;29.57;;;14.80;;
25175;SDS011;13135;55.166;61.286;2022-12-18T13:57:44;22.03;;;11.27;;
25175;SDS011;13135;55.166;61.286;2022-12-18T14:00:29;24.57;;;11.97;;
25175;SDS011;13135;55.166;61.286;2022-12-18T14:03:17;23.80;;;11.63;;
25175;SDS011;13135;55.166;61.286;2022-12-18T14:06:03;28.23;;;12.47;;
25175;SDS011;13135;55.166;61.286;2022-12-18T14:08:47;25.53;;;11.87;;
25175;SDS011;13135;55.166;61.286;2022-12-18T14:11:31;24.07;;;12.13;;
25175;SDS011;13135;55.166;61.286;2022-12-18T14:14:17;27.63;;;11.60;;
25175;SDS011;13135;55.166;61.286;2022-12-18T14:17:01;21.80;;;12.43;;
25175;SDS011;13135;55.166;61.286;2022-12-18T14:19:47;28.80;;;14.97;;
25175;SDS011;13135;55.166;61.286;2022-12-18T14:22:31;22.03;;;10.37;;
25175;SDS011;13135;55.166;61.286;2022-12-18T14:25:17;27.80;;;15.13;;
25175;SDS011;13135;55.166;61.286;2022-12-18T14:28:15;22.43;;;11.50;;
25175;SDS011;13135;55.166;61.286;2022-12-18T14:30:55;26.27;;;13.20;;
25175;SDS011;13135;55.166;61.286;2022-12-18T14:33:40;33.87;;;16.13;;
25175;SDS011;13135;55.166;61.286;2022-12-18T14:36:27;23.10;;;12.53;;
25175;SDS011;13135;55.166;61.286;2022-12-18T14:39:14;33.33;;;15.33;;
25175;SDS011;13135;55.166;61.286;2022-12-18T14:41:56;23.70;;;12.13;;
25175;SDS011;13135;55.166;61.286;2022-12-18T14:44:41;25.73;;;12.90;;
25175;SDS011;13135;55.166;61.286;2022-12-18T14:47:28;23.93;;;12.97;;
25175;SDS011;13135;55.166;61.286;2022-12-18T14:50:13;30.87;;;14.97;;
25175;SDS011;13135;55.166;61.286;2022-12-18T14:52:58;30.20;;;14.73;;
25175;SDS011;13135;55.166;61.286;2022-12-18T14:55:46;24.60;;;12.43;;
25175;SDS011;13135;55.166;61.286;2022-12-18T14:58:30;25.80;;;13.93;;
25175;SDS011;13135;55.166;61.286;2022-12-18T15:01:35;27.77;;;13.63;;
25175;SDS011;13135;55.166;61.286;2022-12-18T15:04:25;26.23;;;12.57;;
25175;SDS011;13135;55.166;61.286;2022-12-18T15:07:21;27.60;;;13.27;;
25175;SDS011;13135;55.166;61.286;2022-12-18T15:10:19;28.20;;;13.20;;
25175;SDS011;13135;55.166;61.286;2022-12-18T15:13:09;27.57;;;13.10;;
25175;SDS011;13135;55.166;61.286;2022-12-18T15:15:53;27.17;;;12.20;;
25175;SDS011;13135;55.166;61.286;2022-12-18T15:18:41;32.57;;;15.40;;
25175;SDS011;13135;55.166;61.286;2022-12-18T15:21:24;28.53;;;14.90;;
25175;SDS011;13135;55.166;61.286;2022-12-18T15:24:16;28.03;;;14.07;;
25175;SDS011;13135;55.166;61.286;2022-12-18T15:27:00;26.53;;;13.53;;
25175;SDS011;13135;55.166;61.286;2022-12-18T15:29:58;27.87;;;12.93;;
25175;SDS011;13135;55.166;61.286;2022-12-18T15:32:27;24.00;;;12.83;;
25175;SDS011;13135;55.166;61.286;2022-12-18T15:35:16;20.33;;;11.20;;
25175;SDS011;13135;55.166;61.286;2022-12-18T15:38:00;22.17;;;12.07;;
25175;SDS011;13135;55.166;61.286;2022-12-18T15:40:44;20.87;;;10.97;;
25175;SDS011;13135;55.166;61.286;2022-12-18T15:43:28;25.50;;;11.37;;
25175;SDS011;13135;55.166;61.286;2022-12-18T15:46:15;26.17;;;12.13;;
25175;SDS011;13135;55.166;61.286;2022-12-18T15:48:58;24.10;;;12.40;;
25175;SDS011;13135;55.166;61.286;2022-12-18T15:51:43;22.03;;;11.00;;
25175;SDS011;13135;55.166;61.286;2022-12-18T15:54:30;24.10;;;11.97;;
25175;SDS011;13135;55.166;61.286;2022-12-18T15:57:15;24.10;;;11.57;;
25175;SDS011;13135;55.166;61.286;2022-12-18T16:00:01;24.90;;;11.07;;
25175;SDS011;13135;55.166;61.286;2022-12-18T16:02:46;18.63;;;9.43;;
25175;SDS011;13135;55.166;61.286;2022-12-18T16:05:30;17.77;;;10.20;;
25175;SDS011;13135;55.166;61.286;2022-12-18T16:08:17;16.33;;;8.27;;
25175;SDS011;13135;55.166;61.286;2022-12-18T16:11:03;18.90;;;9.00;;
25175;SDS011;13135;55.166;61.286;2022-12-18T16:13:47;18.27;;;10.30;;
25175;SDS011;13135;55.166;61.286;2022-12-18T16:16:31;13.87;;;7.50;;
25175;SDS011;13135;55.166;61.286;2022-12-18T16:19:14;14.77;;;7.50;;
25175;SDS011;13135;55.166;61.286;2022-12-18T16:21:56;16.60;;;9.47;;
25175;SDS011;13135;55.166;61.286;2022-12-18T16:24:40;19.37;;;8.50;;
25175;SDS011;13135;55.166;61.286;2022-12-18T16:27:25;16.93;;;7.87;;
25175;SDS011;13135;55.166;61.286;2022-12-18T16:30:13;16.60;;;8.37;;
25175;SDS011;13135;55.166;61.286;2022-12-18T16:32:54;16.67;;;8.67;;
25175;SDS011;13135;55.166;61.286;2022-12-18T16:35:36;18.20;;;9.03;;
25175;SDS011;13135;55.166;61.286;2022-12-18T16:38:21;20.23;;;9.23;;
25175;SDS011;13135;55.166;61.286;2022-12-18T16:41:06;17.87;;;8.73;;
25175;SDS011;13135;55.166;61.286;2022-12-18T16:43:47;14.57;;;8.27;;